Time;durP1;ratioP1;P1;durP2;ratioP2;P2;SDS_P1;SDS_P2;PMS_P1;PMS_P2;Temp;Humidity;BMP_temperature;BMP_pressure;BME280_temperature;BME280_humidity;BME280_pressure;Samples;Min_cycle;Max_cycle;Signal;HPM_P1;HPM_P2
2021/12/17 00:00:26;;;;;;;1.65;0.95;;;23.50;37.50;;;;;;5015605;28;20132;-45
2021/12/17 00:03:35;;;;;;;1.08;0.70;;;23.50;37.50;;;;;;5004773;28;20041;-45
2021/12/17 00:08:16;;;;;;;1.60;0.90;;;23.50;37.50;;;;;;5005620;28;20160;-45
2021/12/17 00:10:44;;;;;;;1.85;0.85;;;23.50;37.50;;;;;;5014329;28;20040;-45
2021/12/17 00:13:10;;;;;;;2.00;0.95;;;23.50;37.60;;;;;;5005159;28;20034;-45
2021/12/17 00:15:37;;;;;;;2.33;1.20;;;23.50;37.60;;;;;;5005665;28;20029;-45
2021/12/17 00:18:12;;;;;;;1.67;0.80;;;23.50;37.50;;;;;;5005076;28;20041;-44
2021/12/17 00:40:05;;;;;;;1.27;0.73;;;23.40;37.50;;;;;;5005550;28;20034;-45
2021/12/17 00:48:35;;;;;;;1.58;0.85;;;23.30;37.60;;;;;;5024602;28;20031;-45
2021/12/17 00:51:48;;;;;;;1.52;0.82;;;23.30;37.60;;;;;;5038674;28;20484;-44
2021/12/17 00:54:08;;;;;;;1.58;0.90;;;23.30;37.60;;;;;;5044302;28;20037;-44
2021/12/17 00:56:35;;;;;;;1.15;0.50;;;23.30;37.60;;;;;;5027827;28;20021;-45
2021/12/17 00:59:01;;;;;;;1.92;1.00;;;23.30;37.70;;;;;;5024398;28;20099;-44
2021/12/17 01:01:27;;;;;;;1.45;0.80;;;23.30;37.60;;;;;;5024372;28;20053;-45
2021/12/17 01:03:55;;;;;;;2.08;0.80;;;23.30;37.70;;;;;;5024051;28;20034;-44
2021/12/17 01:06:22;;;;;;;1.30;0.80;;;23.20;37.60;;;;;;5023103;28;20625;-45
2021/12/17 01:08:49;;;;;;;1.73;0.93;;;23.30;37.70;;;;;;5022383;28;20115;-45
2021/12/17 01:11:15;;;;;;;1.23;0.70;;;23.20;37.60;;;;;;5018044;28;20034;-44
2021/12/17 01:13:41;;;;;;;1.33;0.80;;;23.20;37.60;;;;;;5004222;28;20470;-45
2021/12/17 01:16:08;;;;;;;1.60;0.90;;;23.20;37.60;;;;;;5016669;28;20817;-45
2021/12/17 01:18:49;;;;;;;1.42;0.70;;;23.20;37.60;;;;;;5024198;28;20486;-45
2021/12/17 01:21:54;;;;;;;1.85;0.95;;;23.10;37.60;;;;;;5024806;28;20029;-45
2021/12/17 01:24:37;;;;;;;1.40;0.82;;;23.20;37.60;;;;;;5023762;28;20048;-45
2021/12/17 01:35:22;;;;;;;1.08;0.60;;;23.10;37.70;;;;;;5024527;28;20097;-45
2021/12/17 01:42:42;;;;;;;1.17;0.73;;;23.10;37.60;;;;;;5006591;28;20034;-45
2021/12/17 01:45:08;;;;;;;1.05;0.70;;;23.10;37.70;;;;;;5008365;28;20030;-45
2021/12/17 01:47:34;;;;;;;1.15;0.50;;;23.10;37.70;;;;;;5006557;28;20041;-45
2021/12/17 01:55:50;;;;;;;1.63;0.98;;;23.10;37.70;;;;;;5040613;28;20040;-45
2021/12/17 02:01:01;;;;;;;1.27;0.77;;;23.00;37.60;;;;;;5008198;28;20068;-45
2021/12/17 02:03:27;;;;;;;1.73;0.90;;;23.00;37.60;;;;;;5008688;28;20036;-45
2021/12/17 02:05:53;;;;;;;1.15;0.70;;;23.00;37.60;;;;;;5028042;28;20033;-45
2021/12/17 02:08:19;;;;;;;1.63;0.80;;;23.00;37.60;;;;;;5027645;28;20056;-45
2021/12/17 02:32:18;;;;;;;1.90;1.05;;;22.90;38.20;;;;;;5026853;28;20666;-45
2021/12/17 02:37:17;;;;;;;1.90;0.93;;;22.90;37.50;;;;;;5026865;28;20029;-45
2021/12/17 02:47:40;;;;;;;2.15;1.00;;;22.90;37.50;;;;;;5025751;28;20746;-45
2021/12/17 02:50:09;;;;;;;1.50;1.00;;;22.90;37.60;;;;;;5022087;28;20061;-45
2021/12/17 02:52:37;;;;;;;1.58;0.98;;;22.90;37.60;;;;;;5046204;28;20021;-45
2021/12/17 02:55:07;;;;;;;1.83;1.10;;;22.90;37.60;;;;;;5042202;28;20143;-46
2021/12/17 02:57:35;;;;;;;1.80;1.10;;;22.90;37.70;;;;;;5007213;28;20066;-43
2021/12/17 03:00:05;;;;;;;1.50;0.80;;;22.90;37.70;;;;;;5006563;28;20038;-45
2021/12/17 03:02:33;;;;;;;1.90;1.10;;;22.90;37.80;;;;;;5006692;28;20018;-44
2021/12/17 03:04:59;;;;;;;2.03;0.90;;;22.80;37.70;;;;;;5019148;28;20040;-45
2021/12/17 03:07:24;;;;;;;1.67;0.98;;;22.80;37.70;;;;;;5026247;28;20125;-45
2021/12/17 03:10:03;;;;;;;1.92;0.98;;;22.80;37.70;;;;;;5026168;28;20503;-44
2021/12/17 03:12:37;;;;;;;1.35;0.80;;;22.80;37.70;;;;;;5025861;28;20026;-45
2021/12/17 03:15:14;;;;;;;1.75;1.05;;;22.80;37.80;;;;;;5026603;28;20069;-45
2021/12/17 03:25:40;;;;;;;1.60;0.90;;;22.80;37.60;;;;;;5026382;28;20025;-45
2021/12/17 03:28:06;;;;;;;2.45;1.35;;;22.80;37.60;;;;;;5026285;28;20037;-44
2021/12/17 03:30:31;;;;;;;1.75;0.98;;;22.80;37.50;;;;;;5026252;28;20589;-45
2021/12/17 03:32:57;;;;;;;1.73;1.05;;;22.80;37.60;;;;;;5025856;28;20029;-45
2021/12/17 03:35:23;;;;;;;2.13;1.10;;;22.80;37.60;;;;;;5024620;28;20158;-44
2021/12/17 03:37:48;;;;;;;1.65;1.02;;;22.80;37.50;;;;;;5021406;28;20044;-45
2021/12/17 03:40:16;;;;;;;1.70;1.00;;;22.80;37.50;;;;;;5021257;28;20774;-45
2021/12/17 03:42:47;;;;;;;1.92;1.05;;;22.80;37.50;;;;;;5024626;28;20034;-44
2021/12/17 03:45:14;;;;;;;1.70;0.98;;;22.80;37.60;;;;;;5024909;28;20029;-45
2021/12/17 03:47:40;;;;;;;1.75;0.90;;;22.80;37.60;;;;;;5025064;28;20083;-45
2021/12/17 03:50:06;;;;;;;2.17;1.00;;;22.70;37.60;;;;;;5032132;28;20025;-44
2021/12/17 03:52:32;;;;;;;1.77;1.00;;;22.80;37.60;;;;;;5044719;28;20025;-45
2021/12/17 03:54:58;;;;;;;1.50;1.08;;;22.70;37.60;;;;;;5044049;28;20632;-44
2021/12/17 03:57:24;;;;;;;1.75;0.95;;;22.70;37.60;;;;;;5005568;28;20030;-45
2021/12/17 03:59:49;;;;;;;2.13;0.85;;;22.70;37.70;;;;;;5005457;28;20022;-45
2021/12/17 04:02:16;;;;;;;1.95;1.02;;;22.70;37.60;;;;;;5003986;28;20037;-45
2021/12/17 04:04:42;;;;;;;2.03;1.10;;;22.70;37.70;;;;;;5016308;28;20567;-45
2021/12/17 04:07:08;;;;;;;1.90;1.10;;;22.70;37.70;;;;;;5024905;28;20102;-44
2021/12/17 04:09:34;;;;;;;1.73;1.00;;;22.70;37.60;;;;;;5024355;28;20098;-45
2021/12/17 04:12:01;;;;;;;1.38;0.88;;;22.70;37.70;;;;;;5025042;28;20037;-44
2021/12/17 04:14:35;;;;;;;1.48;0.80;;;22.70;37.70;;;;;;5024926;28;20025;-44
2021/12/17 04:17:05;;;;;;;1.48;0.80;;;22.70;37.70;;;;;;5024957;28;20036;-48
2021/12/17 04:19:31;;;;;;;1.58;1.00;;;22.60;37.60;;;;;;5025170;28;20026;-47
2021/12/17 04:21:56;;;;;;;1.90;1.05;;;22.70;37.60;;;;;;5039859;28;20438;-47
2021/12/17 04:24:22;;;;;;;1.85;1.00;;;22.60;37.60;;;;;;5024217;28;20068;-47
2021/12/17 04:26:48;;;;;;;1.90;1.10;;;22.60;37.60;;;;;;5022464;28;20478;-47
2021/12/17 04:29:15;;;;;;;1.45;0.85;;;22.60;37.60;;;;;;5004730;28;20053;-47
2021/12/17 04:31:40;;;;;;;1.85;1.10;;;22.60;37.60;;;;;;5004476;28;20022;-49
2021/12/17 04:34:06;;;;;;;1.95;1.10;;;22.60;37.60;;;;;;5003046;28;20022;-47
2021/12/17 04:36:35;;;;;;;1.75;1.02;;;22.60;37.60;;;;;;5004771;28;20038;-46
2021/12/17 04:39:01;;;;;;;2.13;1.23;;;22.60;37.60;;;;;;5009945;28;20039;-47
2021/12/17 04:41:43;;;;;;;1.77;1.00;;;22.60;37.60;;;;;;5024725;28;20037;-47
2021/12/17 04:59:41;;;;;;;2.05;1.23;;;22.50;37.60;;;;;;5024320;28;20037;-47
2021/12/17 05:02:07;;;;;;;2.15;1.20;;;22.50;37.60;;;;;;5024414;28;20041;-48
2021/12/17 05:04:33;;;;;;;2.03;1.20;;;22.50;37.70;;;;;;5023981;28;20037;-46
2021/12/17 05:06:59;;;;;;;1.83;1.10;;;22.50;37.60;;;;;;5024103;28;20132;-48
2021/12/17 05:09:36;;;;;;;1.73;1.10;;;22.50;37.70;;;;;;5023929;28;20802;-48
2021/12/17 05:19:58;;;;;;;2.17;1.25;;;22.50;37.90;;;;;;5024399;28;20052;-48
2021/12/17 05:22:26;;;;;;;1.63;1.02;;;22.50;38.00;;;;;;5023939;28;20033;-48
2021/12/17 05:24:51;;;;;;;3.00;1.88;;;22.50;38.10;;;;;;5024324;28;20026;-46
2021/12/17 05:27:18;;;;;;;1.77;1.00;;;22.50;38.20;;;;;;5023449;28;20444;-48
2021/12/17 05:29:45;;;;;;;2.25;1.17;;;22.50;38.30;;;;;;5024244;28;20083;-47
2021/12/17 05:32:11;;;;;;;2.40;1.27;;;22.60;38.40;;;;;;5022112;28;20021;-48
2021/12/17 05:34:36;;;;;;;1.70;1.00;;;22.60;38.40;;;;;;5023983;28;20036;-48
2021/12/17 05:37:03;;;;;;;2.08;1.00;;;22.60;38.40;;;;;;5024056;28;20636;-46
2021/12/17 05:39:29;;;;;;;1.45;0.98;;;22.70;38.50;;;;;;5024075;28;20112;-49
2021/12/17 05:41:55;;;;;;;2.00;1.17;;;22.70;38.30;;;;;;5023813;28;20470;-46
2021/12/17 05:44:21;;;;;;;1.92;1.17;;;22.80;38.40;;;;;;5023478;28;20029;-45
2021/12/17 05:46:50;;;;;;;2.25;1.00;;;22.80;38.30;;;;;;5022900;28;20306;-46
2021/12/17 05:49:26;;;;;;;1.35;0.80;;;22.90;38.40;;;;;;5024019;28;20049;-47
2021/12/17 05:51:53;;;;;;;1.48;0.90;;;23.00;38.30;;;;;;5005017;28;20558;-49
2021/12/17 05:54:20;;;;;;;2.08;1.13;;;23.10;38.30;;;;;;5004276;28;20104;-46
2021/12/17 05:56:46;;;;;;;1.55;0.90;;;23.10;38.20;;;;;;5017391;28;20619;-46
2021/12/17 05:59:13;;;;;;;2.00;1.00;;;23.20;38.10;;;;;;5024149;28;20065;-46
2021/12/17 06:01:38;;;;;;;1.75;0.95;;;23.20;38.00;;;;;;5024055;28;20072;-46
2021/12/17 06:04:05;;;;;;;1.67;0.95;;;23.30;38.00;;;;;;5023363;28;20033;-47
2021/12/17 06:06:35;;;;;;;2.15;0.80;;;23.40;37.90;;;;;;5022859;28;20079;-47
2021/12/17 06:09:05;;;;;;;1.77;0.95;;;23.40;37.80;;;;;;5022898;28;20478;-47
2021/12/17 06:11:31;;;;;;;1.73;0.80;;;23.50;37.70;;;;;;5020324;28;20053;-47
2021/12/17 06:13:56;;;;;;;4.43;1.00;;;23.50;37.70;;;;;;5021618;28;20056;-47
2021/12/17 06:16:22;;;;;;;2.08;1.17;;;23.60;37.80;;;;;;5022791;28;20104;-47
2021/12/17 06:18:48;;;;;;;1.88;1.00;;;23.70;37.90;;;;;;5022344;28;20104;-47
2021/12/17 06:21:14;;;;;;;1.83;0.95;;;23.70;37.90;;;;;;5023236;28;20032;-47
2021/12/17 06:23:40;;;;;;;2.08;0.90;;;23.80;37.90;;;;;;5026246;28;20033;-49
2021/12/17 06:26:07;;;;;;;2.97;1.00;;;23.90;38.20;;;;;;5008048;28;20034;-45
2021/12/17 06:28:33;;;;;;;2.15;1.10;;;23.90;38.30;;;;;;5027017;28;20450;-46
2021/12/17 06:30:58;;;;;;;2.13;1.05;;;24.00;38.20;;;;;;5027252;28;20032;-44
2021/12/17 06:33:24;;;;;;;1.85;1.00;;;24.10;38.20;;;;;;5025311;28;20022;-45
2021/12/17 06:35:50;;;;;;;2.22;1.20;;;24.10;38.20;;;;;;5027047;28;20916;-46
2021/12/17 06:38:15;;;;;;;2.75;1.02;;;24.20;38.10;;;;;;5027162;28;20520;-45
2021/12/17 06:40:41;;;;;;;2.20;1.00;;;24.20;38.00;;;;;;5025312;28;20610;-44
2021/12/17 06:43:07;;;;;;;1.83;1.02;;;24.30;38.00;;;;;;5026442;28;20041;-44
2021/12/17 06:45:50;;;;;;;1.67;1.08;;;24.40;37.90;;;;;;5026670;28;20110;-44
2021/12/17 06:48:20;;;;;;;2.30;1.02;;;24.40;37.70;;;;;;5026330;28;20030;-42
2021/12/17 06:59:07;;;;;;;2.10;1.10;;;24.60;37.60;;;;;;5026831;28;20075;-43
2021/12/17 07:17:50;;;;;;;3.80;1.10;;;24.90;36.90;;;;;;5022697;28;20392;-43
2021/12/17 07:20:54;;;;;;;2.13;1.00;;;24.90;36.80;;;;;;5025582;28;20021;-43
2021/12/17 07:33:58;;;;;;;6.80;1.30;;;25.00;37.20;;;;;;5019458;28;20713;-44
2021/12/17 07:36:23;;;;;;;3.83;1.10;;;25.00;37.20;;;;;;5020790;28;20579;-44
2021/12/17 07:38:50;;;;;;;2.42;1.05;;;25.00;37.30;;;;;;5025164;28;20029;-45
2021/12/17 07:41:17;;;;;;;2.40;1.10;;;25.00;37.30;;;;;;5018523;28;20029;-45
2021/12/17 07:43:54;;;;;;;2.47;0.95;;;25.00;37.20;;;;;;5004853;28;20068;-45
2021/12/17 07:46:21;;;;;;;4.32;1.23;;;25.00;37.00;;;;;;5005058;28;20632;-45
2021/12/17 07:48:47;;;;;;;1.65;0.93;;;25.00;37.00;;;;;;5019926;28;20063;-45
2021/12/17 07:51:15;;;;;;;2.85;1.13;;;25.00;36.90;;;;;;5024506;28;20473;-45
2021/12/17 07:53:41;;;;;;;2.20;1.10;;;25.00;37.00;;;;;;5023454;28;20485;-44
2021/12/17 07:56:10;;;;;;;2.35;1.10;;;25.00;37.00;;;;;;5022258;28;20021;-44
2021/12/17 07:58:36;;;;;;;2.15;0.93;;;25.00;36.90;;;;;;5023845;28;20046;-44
2021/12/17 08:01:04;;;;;;;3.63;1.67;;;25.10;36.90;;;;;;5023684;28;20747;-45
2021/12/17 08:03:30;;;;;;;3.78;1.40;;;25.10;36.70;;;;;;5023882;28;20517;-44
2021/12/17 08:05:56;;;;;;;2.92;1.50;;;25.00;36.80;;;;;;5024854;28;20033;-44
2021/12/17 08:08:22;;;;;;;2.80;1.40;;;25.10;37.00;;;;;;5024852;28;20529;-44
2021/12/17 08:10:48;;;;;;;2.08;1.15;;;25.10;37.10;;;;;;5024227;28;20036;-44
2021/12/17 08:13:28;;;;;;;3.10;1.45;;;25.10;37.30;;;;;;5024299;28;20489;-44
2021/12/17 08:31:28;;;;;;;2.50;0.95;;;25.10;37.20;;;;;;5023364;28;20075;-44
2021/12/17 08:33:55;;;;;;;2.25;1.10;;;25.10;37.20;;;;;;5022514;28;20051;-44
2021/12/17 08:36:21;;;;;;;2.97;1.50;;;25.20;37.10;;;;;;5024282;28;20065;-49
2021/12/17 08:38:49;;;;;;;2.88;1.27;;;25.10;37.70;;;;;;5024542;28;20025;-44
2021/12/17 08:41:16;;;;;;;2.63;1.10;;;25.20;36.90;;;;;;5023939;28;20037;-45
2021/12/17 08:43:42;;;;;;;2.45;1.13;;;25.20;36.90;;;;;;5023894;28;20109;-45
2021/12/17 08:46:09;;;;;;;2.10;1.13;;;25.20;36.80;;;;;;5022936;28;20037;-47
2021/12/17 08:48:35;;;;;;;2.78;1.30;;;25.20;36.70;;;;;;5023196;28;20029;-44
2021/12/17 08:51:02;;;;;;;2.85;1.35;;;25.20;36.70;;;;;;5038374;28;20522;-45
2021/12/17 08:53:28;;;;;;;1.98;0.98;;;25.20;36.60;;;;;;5041633;28;20064;-45
2021/12/17 08:55:53;;;;;;;1.77;0.98;;;25.20;36.60;;;;;;5019301;28;20065;-44
2021/12/17 08:58:19;;;;;;;2.20;1.13;;;25.20;36.60;;;;;;5023839;28;20021;-44
2021/12/17 09:00:46;;;;;;;2.72;1.27;;;25.20;36.50;;;;;;5023836;28;20064;-45
2021/12/17 09:03:13;;;;;;;2.85;1.10;;;25.20;36.40;;;;;;5023217;28;20026;-45
2021/12/17 09:05:43;;;;;;;2.33;1.20;;;25.20;36.30;;;;;;5024258;28;20025;-44
2021/12/17 09:08:10;;;;;;;2.53;1.05;;;25.20;36.40;;;;;;5023477;28;20164;-44
2021/12/17 09:10:37;;;;;;;2.55;1.25;;;25.20;36.20;;;;;;5024259;28;20026;-44
2021/12/17 09:13:04;;;;;;;2.20;1.10;;;25.30;36.20;;;;;;5011772;28;20025;-44
2021/12/17 09:15:30;;;;;;;2.08;1.05;;;25.30;36.20;;;;;;5023600;28;20037;-45
2021/12/17 09:17:56;;;;;;;2.67;1.30;;;25.20;36.00;;;;;;5023821;28;20061;-44
2021/12/17 09:20:22;;;;;;;2.47;1.38;;;25.20;36.00;;;;;;5023433;28;20748;-45
2021/12/17 09:22:48;;;;;;;2.97;1.52;;;25.20;36.00;;;;;;5022911;28;20521;-44
2021/12/17 09:25:14;;;;;;;2.85;1.40;;;25.30;36.00;;;;;;5005089;28;20536;-44
2021/12/17 09:27:41;;;;;;;2.22;1.15;;;25.20;36.00;;;;;;5023160;28;20021;-44
2021/12/17 09:30:13;;;;;;;2.45;1.13;;;25.20;36.40;;;;;;5023023;28;20037;-45
2021/12/17 09:32:39;;;;;;;2.73;1.47;;;25.20;36.30;;;;;;5022127;28;20029;-45
2021/12/17 09:35:07;;;;;;;3.00;1.40;;;25.20;36.40;;;;;;5005480;28;20397;-44
2021/12/17 09:37:32;;;;;;;2.55;1.30;;;25.20;36.30;;;;;;5022093;28;20037;-44
2021/12/17 09:39:58;;;;;;;2.50;1.08;;;25.30;36.40;;;;;;5018767;28;20091;-44
2021/12/17 09:42:25;;;;;;;3.75;1.25;;;25.20;36.30;;;;;;5016743;28;20064;-44
2021/12/17 09:44:51;;;;;;;3.70;1.30;;;25.20;36.30;;;;;;5014058;28;20670;-45
2021/12/17 09:47:16;;;;;;;3.15;1.40;;;25.30;36.30;;;;;;5020687;28;20087;-45
2021/12/17 09:49:43;;;;;;;2.92;1.30;;;25.30;36.30;;;;;;5026019;28;20017;-44
2021/12/17 09:52:09;;;;;;;2.95;1.33;;;25.30;36.30;;;;;;5043034;28;20025;-44
2021/12/17 09:54:36;;;;;;;2.78;1.30;;;25.30;36.30;;;;;;5042967;28;20458;-44
2021/12/17 09:57:02;;;;;;;2.22;1.20;;;25.30;36.20;;;;;;5033455;28;20703;-45
2021/12/17 09:59:28;;;;;;;2.70;1.10;;;25.30;36.20;;;;;;5025747;28;20041;-45
2021/12/17 10:01:54;;;;;;;2.38;1.08;;;25.30;36.20;;;;;;5025835;28;20147;-44
2021/12/17 10:04:31;;;;;;;2.25;1.10;;;25.30;36.30;;;;;;5026540;28;20112;-44
2021/12/17 10:07:36;;;;;;;2.17;1.10;;;25.30;36.30;;;;;;5027505;28;20048;-44
2021/12/17 10:10:05;;;;;;;2.20;0.90;;;25.30;36.40;;;;;;5043441;28;20025;-45
2021/12/17 10:12:37;;;;;;;3.00;1.02;;;25.30;36.40;;;;;;5029670;28;20044;-44
2021/12/17 10:15:29;;;;;;;2.25;1.00;;;25.30;36.40;;;;;;5029828;28;20117;-44
2021/12/17 10:18:02;;;;;;;2.63;1.20;;;25.30;36.30;;;;;;5026651;28;20063;-44
2021/12/17 10:20:30;;;;;;;2.97;1.17;;;25.30;36.20;;;;;;5026789;28;20026;-45
2021/12/17 10:22:57;;;;;;;3.45;1.33;;;25.30;36.10;;;;;;5009015;28;20028;-45
2021/12/17 10:25:24;;;;;;;2.90;0.90;;;25.20;36.20;;;;;;5026921;28;20112;-45
2021/12/17 10:27:56;;;;;;;2.47;1.10;;;25.20;36.20;;;;;;5024696;28;20048;-44
2021/12/17 10:30:22;;;;;;;2.80;0.87;;;25.30;36.20;;;;;;5007099;28;20112;-45
2021/12/17 10:32:54;;;;;;;2.50;0.90;;;25.30;36.10;;;;;;5006033;28;20479;-45
2021/12/17 10:35:21;;;;;;;2.03;1.10;;;25.30;36.20;;;;;;5005959;28;20114;-45
2021/12/17 10:37:57;;;;;;;2.75;1.17;;;25.20;36.20;;;;;;5007105;28;20018;-44
2021/12/17 10:40:23;;;;;;;2.60;1.15;;;25.30;36.20;;;;;;5007257;28;20124;-44
2021/12/17 10:42:59;;;;;;;1.98;1.00;;;25.20;36.20;;;;;;5022590;28;20121;-45
2021/12/17 10:45:28;;;;;;;1.95;1.00;;;25.30;36.20;;;;;;5025504;28;20628;-45
2021/12/17 10:48:34;;;;;;;1.95;0.80;;;25.30;36.20;;;;;;5018899;28;20033;-44
2021/12/17 10:51:07;;;;;;;3.03;1.25;;;25.20;36.30;;;;;;5034086;28;20720;-44
2021/12/17 10:53:33;;;;;;;2.50;1.00;;;25.20;36.20;;;;;;5033632;28;20042;-45
2021/12/17 10:55:59;;;;;;;1.77;0.93;;;25.30;36.30;;;;;;5025844;28;20033;-44
2021/12/17 10:58:25;;;;;;;2.53;1.20;;;25.20;36.30;;;;;;5026694;28;20065;-45
2021/12/17 11:00:56;;;;;;;2.38;0.95;;;25.30;36.30;;;;;;5024844;28;20029;-44
2021/12/17 11:03:23;;;;;;;1.77;0.90;;;25.30;36.30;;;;;;5025550;28;20026;-45
2021/12/17 11:05:48;;;;;;;2.35;1.05;;;25.20;36.30;;;;;;5026371;28;20037;-45
2021/12/17 11:08:31;;;;;;;1.83;1.00;;;25.20;36.20;;;;;;5023968;28;20101;-45
2021/12/17 11:11:06;;;;;;;2.85;1.15;;;25.30;36.30;;;;;;5025943;28;20022;-45
2021/12/17 11:13:32;;;;;;;2.90;1.15;;;25.20;36.20;;;;;;5025367;28;20017;-45
2021/12/17 11:15:58;;;;;;;2.75;1.08;;;25.20;36.20;;;;;;5025795;28;20446;-44
2021/12/17 11:18:27;;;;;;;2.33;1.13;;;25.20;36.10;;;;;;5025996;28;20057;-44
2021/12/17 11:20:55;;;;;;;2.95;1.20;;;25.30;36.10;;;;;;5026227;28;20148;-44
2021/12/17 11:23:23;;;;;;;4.38;1.20;;;25.20;36.10;;;;;;5025787;28;20670;-45
2021/12/17 11:25:50;;;;;;;2.08;1.05;;;25.20;36.20;;;;;;5025597;28;20029;-45
2021/12/17 11:28:16;;;;;;;2.85;1.10;;;25.20;36.20;;;;;;5006335;28;20087;-45
2021/12/17 11:30:44;;;;;;;3.72;1.50;;;25.20;36.20;;;;;;5005319;28;20014;-45
2021/12/17 11:33:11;;;;;;;2.17;1.20;;;25.20;36.30;;;;;;5005876;28;20014;-44
2021/12/17 11:35:39;;;;;;;2.88;1.27;;;25.20;36.40;;;;;;5005399;28;20029;-44
2021/12/17 11:38:11;;;;;;;4.53;1.17;;;25.20;36.30;;;;;;5006031;28;20121;-44
2021/12/17 11:40:43;;;;;;;3.00;1.20;;;25.20;36.30;;;;;;5005410;28;20551;-44
2021/12/17 11:43:37;;;;;;;2.75;1.02;;;25.20;36.60;;;;;;5023704;28;20033;-44
2021/12/17 11:46:06;;;;;;;2.17;1.13;;;25.20;36.30;;;;;;5005251;28;20061;-45
2021/12/17 11:48:34;;;;;;;3.90;1.35;;;25.20;36.10;;;;;;5004755;28;20057;-44
2021/12/17 11:51:23;;;;;;;2.58;1.38;;;25.10;36.20;;;;;;5033651;28;20532;-44
2021/12/17 11:53:52;;;;;;;3.78;1.58;;;25.10;36.20;;;;;;5032220;28;20087;-44
2021/12/17 11:56:34;;;;;;;3.42;1.40;;;25.10;36.20;;;;;;5024610;28;20806;-44
2021/12/17 11:59:00;;;;;;;3.85;1.40;;;25.10;36.30;;;;;;5023965;28;20120;-45
2021/12/17 12:01:49;;;;;;;3.40;1.30;;;25.10;36.40;;;;;;5021504;28;20052;-44
2021/12/17 12:04:34;;;;;;;5.20;1.70;;;25.10;36.60;;;;;;5022337;28;20033;-45
2021/12/17 12:07:01;;;;;;;4.05;1.63;;;25.10;36.60;;;;;;5022848;28;20013;-44
2021/12/17 12:09:58;;;;;;;3.78;1.10;;;25.10;36.60;;;;;;5023745;28;20026;-44
2021/12/17 12:12:50;;;;;;;4.55;1.52;;;25.10;36.60;;;;;;5023588;28;20302;-44
2021/12/17 12:15:30;;;;;;;2.33;1.00;;;25.20;36.70;;;;;;5024097;28;20029;-44
2021/12/17 12:18:06;;;;;;;3.33;1.40;;;25.10;36.60;;;;;;5023807;28;20030;-45
2021/12/17 12:20:50;;;;;;;2.58;1.10;;;25.10;36.60;;;;;;5024427;28;20025;-44
2021/12/17 12:23:32;;;;;;;2.83;1.23;;;25.10;36.70;;;;;;5024913;28;20398;-45
2021/12/17 12:26:04;;;;;;;2.92;1.27;;;25.10;36.60;;;;;;5023051;28;20088;-45
2021/12/17 12:28:45;;;;;;;2.83;1.20;;;25.20;36.70;;;;;;5007646;28;20662;-44
2021/12/17 12:31:36;;;;;;;5.00;1.58;;;25.10;36.70;;;;;;5024778;28;20033;-44
2021/12/17 12:34:06;;;;;;;3.22;1.55;;;25.10;36.60;;;;;;5022723;28;20045;-45
2021/12/17 12:37:01;;;;;;;2.35;1.20;;;25.10;37.20;;;;;;5024945;28;20083;-45
2021/12/17 12:39:28;;;;;;;3.92;1.30;;;25.10;36.60;;;;;;5023405;28;20118;-44
2021/12/17 12:42:35;;;;;;;2.75;1.20;;;25.10;36.60;;;;;;5022056;28;20044;-44
2021/12/17 12:45:06;;;;;;;2.97;1.23;;;25.10;36.60;;;;;;5041154;28;20480;-44
2021/12/17 12:47:37;;;;;;;3.10;1.20;;;25.10;36.60;;;;;;5026382;28;20038;-45
2021/12/17 12:50:04;;;;;;;2.80;1.25;;;25.10;36.50;;;;;;5030642;28;20036;-45
2021/12/17 12:52:39;;;;;;;2.60;1.30;;;25.10;36.50;;;;;;5044799;28;20029;-44
2021/12/17 12:55:12;;;;;;;3.05;1.30;;;25.10;36.50;;;;;;5043344;28;20110;-44
2021/12/17 12:57:50;;;;;;;2.50;1.25;;;25.10;36.40;;;;;;5031239;28;20105;-44
2021/12/17 13:00:29;;;;;;;2.42;1.10;;;25.10;36.50;;;;;;5024403;28;20037;-44
2021/12/17 13:03:04;;;;;;;2.67;1.20;;;25.10;36.50;;;;;;5023918;28;20075;-44
2021/12/17 13:05:31;;;;;;;2.58;1.00;;;25.10;36.40;;;;;;5024028;28;20087;-44
2021/12/17 13:07:59;;;;;;;2.88;1.20;;;25.10;36.40;;;;;;5023248;28;20374;-44
2021/12/17 13:10:30;;;;;;;3.35;1.30;;;25.20;36.40;;;;;;5024301;28;20029;-44
2021/12/17 13:13:06;;;;;;;2.60;1.20;;;25.10;36.30;;;;;;5021580;28;20616;-44
2021/12/17 13:26:40;;;;;;;4.13;1.70;;;25.20;36.50;;;;;;5023287;28;20071;-44
2021/12/17 13:29:12;;;;;;;3.92;1.17;;;25.10;36.30;;;;;;5022659;28;20029;-44
2021/12/17 13:31:49;;;;;;;;;;;25.10;36.30;;;;;;5025221;28;20151;-44
2021/12/17 13:34:37;;;;;;;3.25;1.42;;;25.10;36.30;;;;;;5028351;28;19912;-44
2021/12/17 13:37:20;;;;;;;3.85;1.40;;;25.10;36.40;;;;;;5028853;28;20553;-44
2021/12/17 13:39:47;;;;;;;;;;;25.10;36.40;;;;;;5030954;28;20029;-44
2021/12/17 13:42:20;;;;;;;2.53;1.20;;;25.10;36.50;;;;;;5029507;28;20351;-44
2021/12/17 13:44:47;;;;;;;2.95;1.30;;;25.10;36.50;;;;;;5029709;28;20033;-49
2021/12/17 13:47:21;;;;;;;2.42;1.23;;;25.10;36.50;;;;;;5029380;28;20108;-44
2021/12/17 13:50:00;;;;;;;3.00;1.48;;;25.10;36.50;;;;;;5029798;28;20097;-44
2021/12/17 13:52:29;;;;;;;2.58;1.30;;;25.10;36.50;;;;;;5030244;28;20030;-44
2021/12/17 13:54:57;;;;;;;3.13;1.58;;;25.10;36.50;;;;;;5030667;28;20488;-44
2021/12/17 13:57:26;;;;;;;3.50;1.60;;;25.10;36.60;;;;;;5029742;28;20037;-44
2021/12/17 13:59:52;;;;;;;2.88;1.60;;;25.00;36.60;;;;;;5015808;28;20041;-44
2021/12/17 14:02:22;;;;;;;3.05;1.13;;;25.10;36.50;;;;;;5009311;28;20045;-44
2021/12/17 14:04:59;;;;;;;2.80;1.48;;;25.10;36.50;;;;;;5009579;28;20612;-44
2021/12/17 14:07:28;;;;;;;3.05;1.30;;;25.10;36.50;;;;;;5009606;28;20117;-44
2021/12/17 14:10:22;;;;;;;3.53;1.30;;;25.10;37.00;;;;;;5009590;28;20045;-44
2021/12/17 14:12:49;;;;;;;3.60;1.40;;;25.10;36.90;;;;;;5009314;28;20502;-44
2021/12/17 14:15:27;;;;;;;3.38;1.45;;;25.10;36.90;;;;;;5010264;28;20034;-44
2021/12/17 14:18:21;;;;;;;3.17;1.33;;;25.10;36.90;;;;;;5019792;28;20064;-44
2021/12/17 14:20:52;;;;;;;2.85;1.35;;;25.10;37.00;;;;;;5029109;28;20047;-44
2021/12/17 14:23:26;;;;;;;3.05;1.40;;;25.10;36.80;;;;;;5029218;28;20112;-44
2021/12/17 14:25:54;;;;;;;3.60;1.73;;;25.10;36.60;;;;;;5029555;28;20482;-44
2021/12/17 14:28:28;;;;;;;5.20;1.50;;;25.10;36.50;;;;;;5012799;28;20042;-45
2021/12/17 14:30:56;;;;;;;4.60;1.95;;;25.10;36.50;;;;;;5009265;28;20030;-45
2021/12/17 14:33:25;;;;;;;3.83;1.90;;;25.10;36.20;;;;;;5008150;28;20108;-45
2021/12/17 14:36:01;;;;;;;3.83;1.92;;;25.10;36.20;;;;;;5010506;28;20030;-44
2021/12/17 14:38:46;;;;;;;5.97;2.35;;;25.10;36.10;;;;;;5007750;28;20540;-45
2021/12/17 14:41:30;;;;;;;7.05;2.83;;;25.10;36.10;;;;;;5010050;28;20105;-45
2021/12/17 14:44:10;;;;;;;4.65;2.15;;;25.10;36.10;;;;;;5008050;28;20116;-44
2021/12/17 14:46:48;;;;;;;6.05;2.25;;;25.10;36.80;;;;;;5031164;28;20036;-45
2021/12/17 14:58:17;;;;;;;6.07;2.00;;;25.10;36.40;;;;;;5022344;28;20048;-45
2021/12/17 15:05:34;;;;;;;3.15;1.65;;;25.10;36.30;;;;;;5021974;28;20037;-44
2021/12/17 15:08:02;;;;;;;3.53;1.90;;;25.10;36.20;;;;;;5023831;28;20282;-44
2021/12/17 15:10:29;;;;;;;2.60;1.30;;;25.10;36.10;;;;;;5025247;28;20017;-44
2021/12/17 15:12:59;;;;;;;3.75;1.73;;;25.20;35.90;;;;;;5024664;28;20030;-45
2021/12/17 15:15:27;;;;;;;4.25;1.83;;;25.20;35.80;;;;;;5025095;28;20038;-45
2021/12/17 15:17:54;;;;;;;3.53;1.63;;;25.10;35.80;;;;;;5025475;28;20530;-45
2021/12/17 15:20:22;;;;;;;4.95;2.10;;;25.20;35.80;;;;;;5025863;28;20518;-45
2021/12/17 15:22:49;;;;;;;3.60;1.92;;;25.20;35.90;;;;;;5024866;28;20029;-45
2021/12/17 15:25:16;;;;;;;3.80;2.00;;;25.10;36.00;;;;;;5023594;28;20025;-45
2021/12/17 15:27:42;;;;;;;4.22;1.98;;;25.20;36.20;;;;;;5025660;28;20032;-45
2021/12/17 15:30:24;;;;;;;4.22;2.00;;;25.10;36.20;;;;;;5025504;28;20033;-45
2021/12/17 15:32:50;;;;;;;3.65;2.03;;;25.10;36.30;;;;;;5024857;28;20096;-45
2021/12/17 15:35:19;;;;;;;3.35;1.42;;;25.10;36.40;;;;;;5022632;28;20025;-44
2021/12/17 15:37:46;;;;;;;2.97;1.77;;;25.10;36.40;;;;;;5023218;28;20025;-45
2021/12/17 15:40:12;;;;;;;3.05;1.40;;;25.20;36.40;;;;;;5022748;28;20025;-45
2021/12/17 15:42:38;;;;;;;3.30;1.70;;;25.10;36.50;;;;;;5023730;28;20117;-45
2021/12/17 15:45:06;;;;;;;3.17;1.88;;;25.10;36.50;;;;;;5023364;28;20092;-45
2021/12/17 15:47:32;;;;;;;3.75;1.80;;;25.10;36.60;;;;;;5024549;28;20374;-44
2021/12/17 15:49:57;;;;;;;3.92;2.10;;;25.10;36.60;;;;;;5024578;28;20087;-44
2021/12/17 15:52:23;;;;;;;3.58;2.03;;;25.10;36.60;;;;;;5023953;28;20022;-45
2021/12/17 15:54:49;;;;;;;3.72;1.92;;;25.10;36.60;;;;;;5022522;28;20025;-44
2021/12/17 15:57:16;;;;;;;3.80;1.75;;;25.10;36.60;;;;;;5024400;28;20091;-45
2021/12/17 15:59:43;;;;;;;4.78;1.73;;;25.10;36.70;;;;;;5024363;28;20496;-45
2021/12/17 16:02:09;;;;;;;3.10;1.67;;;25.10;36.70;;;;;;5025167;28;20029;-45
2021/12/17 16:04:39;;;;;;;3.83;1.98;;;25.10;36.80;;;;;;5022863;28;20029;-45
2021/12/17 16:07:05;;;;;;;2.85;1.67;;;25.00;36.70;;;;;;5023520;28;20021;-45
2021/12/17 16:22:49;;;;;;;2.95;1.50;;;25.00;36.80;;;;;;5032128;28;20140;-44
2021/12/17 16:25:15;;;;;;;3.78;1.70;;;25.00;36.80;;;;;;5015298;28;20112;-44